sensor_id;sensor_type;location;lat;lon;timestamp;P1;durP1;ratioP1;P2;durP2;ratioP2
67721;SDS011;58309;45.292;11.820;2023-07-31T00:02:14;5.55;;;4.20;;
67721;SDS011;58309;45.292;11.820;2023-07-31T00:04:39;5.20;;;4.47;;
67721;SDS011;58309;45.292;11.820;2023-07-31T00:07:05;4.70;;;4.30;;
67721;SDS011;58309;45.292;11.820;2023-07-31T00:09:31;8.23;;;4.32;;
67721;SDS011;58309;45.292;11.820;2023-07-31T00:11:57;5.25;;;4.57;;
67721;SDS011;58309;45.292;11.820;2023-07-31T00:14:22;6.38;;;4.15;;
67721;SDS011;58309;45.292;11.820;2023-07-31T00:16:47;6.38;;;4.20;;
67721;SDS011;58309;45.292;11.820;2023-07-31T00:19:13;6.07;;;4.72;;
67721;SDS011;58309;45.292;11.820;2023-07-31T00:21:38;5.35;;;4.85;;
67721;SDS011;58309;45.292;11.820;2023-07-31T00:24:04;6.75;;;5.55;;
67721;SDS011;58309;45.292;11.820;2023-07-31T00:26:29;6.90;;;6.30;;
67721;SDS011;58309;45.292;11.820;2023-07-31T00:28:54;7.77;;;7.03;;
67721;SDS011;58309;45.292;11.820;2023-07-31T00:31:20;7.43;;;6.68;;
67721;SDS011;58309;45.292;11.820;2023-07-31T00:33:50;7.70;;;7.00;;
67721;SDS011;58309;45.292;11.820;2023-07-31T00:36:16;9.73;;;7.43;;
67721;SDS011;58309;45.292;11.820;2023-07-31T00:38:42;7.22;;;6.55;;
67721;SDS011;58309;45.292;11.820;2023-07-31T00:41:08;7.72;;;6.75;;
67721;SDS011;58309;45.292;11.820;2023-07-31T00:43:33;9.87;;;7.33;;
67721;SDS011;58309;45.292;11.820;2023-07-31T00:45:58;7.90;;;7.15;;
67721;SDS011;58309;45.292;11.820;2023-07-31T00:48:24;9.15;;;8.27;;
67721;SDS011;58309;45.292;11.820;2023-07-31T00:50:50;9.45;;;8.50;;
67721;SDS011;58309;45.292;11.820;2023-07-31T00:53:15;9.52;;;8.55;;
67721;SDS011;58309;45.292;11.820;2023-07-31T00:55:40;12.32;;;10.90;;
67721;SDS011;58309;45.292;11.820;2023-07-31T00:58:06;11.60;;;10.40;;
67721;SDS011;58309;45.292;11.820;2023-07-31T01:00:31;12.17;;;10.87;;
67721;SDS011;58309;45.292;11.820;2023-07-31T01:02:57;14.60;;;11.18;;
67721;SDS011;58309;45.292;11.820;2023-07-31T01:08:15;13.63;;;11.27;;
67721;SDS011;58309;45.292;11.820;2023-07-31T01:10:49;17.05;;;12.55;;
67721;SDS011;58309;45.292;11.820;2023-07-31T01:13:15;13.90;;;12.10;;
67721;SDS011;58309;45.292;11.820;2023-07-31T01:15:42;14.55;;;13.02;;
67721;SDS011;58309;45.292;11.820;2023-07-31T01:18:08;14.73;;;13.13;;
67721;SDS011;58309;45.292;11.820;2023-07-31T01:20:33;18.07;;;13.10;;
67721;SDS011;58309;45.292;11.820;2023-07-31T01:30:58;17.58;;;15.77;;
67721;SDS011;58309;45.292;11.820;2023-07-31T01:33:25;20.60;;;17.10;;
67721;SDS011;58309;45.292;11.820;2023-07-31T01:35:53;19.52;;;16.75;;
67721;SDS011;58309;45.292;11.820;2023-07-31T01:38:22;21.55;;;17.42;;
67721;SDS011;58309;45.292;11.820;2023-07-31T01:40:50;21.00;;;16.90;;
67721;SDS011;58309;45.292;11.820;2023-07-31T01:43:16;20.38;;;16.98;;
67721;SDS011;58309;45.292;11.820;2023-07-31T01:45:41;18.67;;;16.67;;
67721;SDS011;58309;45.292;11.820;2023-07-31T01:48:06;21.58;;;17.77;;
67721;SDS011;58309;45.292;11.820;2023-07-31T01:50:32;20.58;;;17.48;;
67721;SDS011;58309;45.292;11.820;2023-07-31T01:52:57;20.33;;;17.63;;
67721;SDS011;58309;45.292;11.820;2023-07-31T01:55:22;21.90;;;17.77;;
67721;SDS011;58309;45.292;11.820;2023-07-31T01:57:48;22.93;;;17.83;;
67721;SDS011;58309;45.292;11.820;2023-07-31T02:00:13;23.77;;;18.85;;
67721;SDS011;58309;45.292;11.820;2023-07-31T02:02:38;19.58;;;16.80;;
67721;SDS011;58309;45.292;11.820;2023-07-31T02:05:04;21.67;;;18.40;;
67721;SDS011;58309;45.292;11.820;2023-07-31T02:07:30;22.10;;;17.58;;
67721;SDS011;58309;45.292;11.820;2023-07-31T02:09:55;22.60;;;18.30;;
67721;SDS011;58309;45.292;11.820;2023-07-31T02:12:20;24.40;;;18.97;;
67721;SDS011;58309;45.292;11.820;2023-07-31T02:14:46;23.23;;;18.90;;
67721;SDS011;58309;45.292;11.820;2023-07-31T02:17:11;19.60;;;17.55;;
67721;SDS011;58309;45.292;11.820;2023-07-31T02:19:36;20.97;;;18.53;;
67721;SDS011;58309;45.292;11.820;2023-07-31T02:22:02;22.63;;;19.20;;
67721;SDS011;58309;45.292;11.820;2023-07-31T02:24:27;18.58;;;16.65;;
67721;SDS011;58309;45.292;11.820;2023-07-31T02:26:53;24.80;;;17.42;;
67721;SDS011;58309;45.292;11.820;2023-07-31T02:29:18;21.77;;;17.73;;
67721;SDS011;58309;45.292;11.820;2023-07-31T02:31:43;20.90;;;17.13;;
67721;SDS011;58309;45.292;11.820;2023-07-31T02:34:09;20.13;;;16.60;;
67721;SDS011;58309;45.292;11.820;2023-07-31T02:36:34;19.93;;;16.37;;
67721;SDS011;58309;45.292;11.820;2023-07-31T02:38:59;22.27;;;17.73;;
67721;SDS011;58309;45.292;11.820;2023-07-31T02:41:24;21.70;;;17.65;;
67721;SDS011;58309;45.292;11.820;2023-07-31T02:43:50;19.50;;;17.20;;
67721;SDS011;58309;45.292;11.820;2023-07-31T02:46:15;19.73;;;16.77;;
67721;SDS011;58309;45.292;11.820;2023-07-31T02:48:40;18.60;;;16.57;;
67721;SDS011;58309;45.292;11.820;2023-07-31T02:51:06;19.50;;;16.58;;
67721;SDS011;58309;45.292;11.820;2023-07-31T02:53:31;17.92;;;16.02;;
67721;SDS011;58309;45.292;11.820;2023-07-31T02:55:56;21.43;;;17.37;;
67721;SDS011;58309;45.292;11.820;2023-07-31T02:58:21;21.63;;;16.83;;
67721;SDS011;58309;45.292;11.820;2023-07-31T03:00:47;21.33;;;16.20;;
67721;SDS011;58309;45.292;11.820;2023-07-31T03:03:12;20.97;;;16.60;;
67721;SDS011;58309;45.292;11.820;2023-07-31T03:05:37;17.83;;;15.90;;
67721;SDS011;58309;45.292;11.820;2023-07-31T03:08:03;21.93;;;17.37;;
67721;SDS011;58309;45.292;11.820;2023-07-31T03:10:29;19.70;;;17.55;;
67721;SDS011;58309;45.292;11.820;2023-07-31T03:12:54;20.63;;;16.13;;
67721;SDS011;58309;45.292;11.820;2023-07-31T03:18:05;17.73;;;15.82;;
67721;SDS011;58309;45.292;11.820;2023-07-31T03:21:21;18.30;;;15.98;;
67721;SDS011;58309;45.292;11.820;2023-07-31T03:24:23;20.25;;;16.00;;
67721;SDS011;58309;45.292;11.820;2023-07-31T03:26:59;17.80;;;15.90;;
67721;SDS011;58309;45.292;11.820;2023-07-31T03:29:27;18.38;;;16.45;;
67721;SDS011;58309;45.292;11.820;2023-07-31T03:34:35;18.75;;;15.93;;
67721;SDS011;58309;45.292;11.820;2023-07-31T03:37:12;17.27;;;15.48;;
67721;SDS011;58309;45.292;11.820;2023-07-31T03:43:08;15.90;;;13.68;;
67721;SDS011;58309;45.292;11.820;2023-07-31T03:45:39;16.85;;;15.15;;
67721;SDS011;58309;45.292;11.820;2023-07-31T03:48:05;18.60;;;14.90;;
67721;SDS011;58309;45.292;11.820;2023-07-31T03:50:47;15.38;;;13.88;;
67721;SDS011;58309;45.292;11.820;2023-07-31T03:53:13;14.73;;;13.23;;
67721;SDS011;58309;45.292;11.820;2023-07-31T03:55:59;15.65;;;13.93;;
67721;SDS011;58309;45.292;11.820;2023-07-31T04:01:33;16.13;;;12.82;;
67721;SDS011;58309;45.292;11.820;2023-07-31T04:04:04;17.88;;;12.93;;
67721;SDS011;58309;45.292;11.820;2023-07-31T04:06:33;16.95;;;13.27;;
67721;SDS011;58309;45.292;11.820;2023-07-31T04:14:46;16.40;;;13.02;;
67721;SDS011;58309;45.292;11.820;2023-07-31T04:17:30;14.80;;;12.48;;
67721;SDS011;58309;45.292;11.820;2023-07-31T04:28:36;12.73;;;11.43;;
67721;SDS011;58309;45.292;11.820;2023-07-31T04:31:20;12.77;;;11.57;;
67721;SDS011;58309;45.292;11.820;2023-07-31T04:34:14;12.75;;;10.60;;
67721;SDS011;58309;45.292;11.820;2023-07-31T04:36:42;10.77;;;9.73;;
67721;SDS011;58309;45.292;11.820;2023-07-31T04:39:24;12.15;;;10.38;;
67721;SDS011;58309;45.292;11.820;2023-07-31T04:41:58;11.50;;;9.85;;
67721;SDS011;58309;45.292;11.820;2023-07-31T04:44:23;12.13;;;10.82;;
67721;SDS011;58309;45.292;11.820;2023-07-31T04:46:56;11.55;;;10.30;;
67721;SDS011;58309;45.292;11.820;2023-07-31T04:49:27;10.82;;;9.82;;
67721;SDS011;58309;45.292;11.820;2023-07-31T04:52:24;11.30;;;10.15;;
67721;SDS011;58309;45.292;11.820;2023-07-31T04:55:09;10.85;;;9.75;;
67721;SDS011;58309;45.292;11.820;2023-07-31T04:57:50;10.23;;;8.75;;
67721;SDS011;58309;45.292;11.820;2023-07-31T05:00:21;9.88;;;8.98;;
67721;SDS011;58309;45.292;11.820;2023-07-31T05:02:49;9.95;;;8.95;;
67721;SDS011;58309;45.292;11.820;2023-07-31T05:05:15;10.55;;;8.77;;
67721;SDS011;58309;45.292;11.820;2023-07-31T05:10:35;9.68;;;8.77;;
67721;SDS011;58309;45.292;11.820;2023-07-31T05:19:15;13.30;;;8.63;;
67721;SDS011;58309;45.292;11.820;2023-07-31T05:21:54;8.82;;;7.95;;
67721;SDS011;58309;45.292;11.820;2023-07-31T05:27:43;8.73;;;7.85;;
67721;SDS011;58309;45.292;11.820;2023-07-31T05:30:08;7.78;;;7.00;;
67721;SDS011;58309;45.292;11.820;2023-07-31T05:32:34;7.45;;;6.75;;
67721;SDS011;58309;45.292;11.820;2023-07-31T05:34:59;8.82;;;7.00;;
67721;SDS011;58309;45.292;11.820;2023-07-31T05:37:24;8.77;;;6.55;;
67721;SDS011;58309;45.292;11.820;2023-07-31T05:39:50;10.80;;;6.90;;
67721;SDS011;58309;45.292;11.820;2023-07-31T05:42:16;8.30;;;6.30;;
67721;SDS011;58309;45.292;11.820;2023-07-31T05:44:41;7.00;;;6.40;;
67721;SDS011;58309;45.292;11.820;2023-07-31T05:47:07;9.88;;;6.30;;
67721;SDS011;58309;45.292;11.820;2023-07-31T05:49:32;6.88;;;6.18;;
67721;SDS011;58309;45.292;11.820;2023-07-31T05:51:57;6.80;;;6.20;;
67721;SDS011;58309;45.292;11.820;2023-07-31T05:54:23;8.23;;;6.40;;
67721;SDS011;58309;45.292;11.820;2023-07-31T05:56:48;6.27;;;5.77;;
67721;SDS011;58309;45.292;11.820;2023-07-31T05:59:14;7.45;;;6.35;;
67721;SDS011;58309;45.292;11.820;2023-07-31T06:01:39;6.97;;;6.30;;
67721;SDS011;58309;45.292;11.820;2023-07-31T06:04:04;6.68;;;6.07;;
67721;SDS011;58309;45.292;11.820;2023-07-31T06:06:30;6.10;;;5.60;;
67721;SDS011;58309;45.292;11.820;2023-07-31T06:08:55;6.68;;;6.10;;
67721;SDS011;58309;45.292;11.820;2023-07-31T06:11:21;6.13;;;5.53;;
67721;SDS011;58309;45.292;11.820;2023-07-31T06:13:46;6.45;;;5.95;;
67721;SDS011;58309;45.292;11.820;2023-07-31T06:16:13;7.07;;;5.35;;
67721;SDS011;58309;45.292;11.820;2023-07-31T06:18:38;5.65;;;5.15;;
67721;SDS011;58309;45.292;11.820;2023-07-31T06:21:04;5.45;;;4.60;;
67721;SDS011;58309;45.292;11.820;2023-07-31T06:23:29;5.13;;;4.40;;
67721;SDS011;58309;45.292;11.820;2023-07-31T06:25:54;6.35;;;4.65;;
67721;SDS011;58309;45.292;11.820;2023-07-31T06:28:20;6.90;;;4.55;;
67721;SDS011;58309;45.292;11.820;2023-07-31T06:30:45;4.13;;;3.80;;
67721;SDS011;58309;45.292;11.820;2023-07-31T06:33:10;4.70;;;4.03;;
67721;SDS011;58309;45.292;11.820;2023-07-31T06:35:36;4.63;;;4.10;;
67721;SDS011;58309;45.292;11.820;2023-07-31T06:38:01;4.07;;;3.77;;
67721;SDS011;58309;45.292;11.820;2023-07-31T06:40:27;3.95;;;3.13;;
67721;SDS011;58309;45.292;11.820;2023-07-31T06:42:53;3.20;;;2.90;;
67721;SDS011;58309;45.292;11.820;2023-07-31T06:45:18;2.70;;;2.50;;
67721;SDS011;58309;45.292;11.820;2023-07-31T06:47:43;6.32;;;2.47;;
67721;SDS011;58309;45.292;11.820;2023-07-31T06:50:09;2.33;;;2.23;;
67721;SDS011;58309;45.292;11.820;2023-07-31T06:52:34;2.67;;;2.50;;
67721;SDS011;58309;45.292;11.820;2023-07-31T06:55:18;3.05;;;2.50;;
67721;SDS011;58309;45.292;11.820;2023-07-31T06:57:45;3.95;;;2.40;;
67721;SDS011;58309;45.292;11.820;2023-07-31T07:00:10;2.47;;;2.28;;
67721;SDS011;58309;45.292;11.820;2023-07-31T07:02:36;2.35;;;2.15;;
67721;SDS011;58309;45.292;11.820;2023-07-31T07:05:01;3.80;;;2.30;;
67721;SDS011;58309;45.292;11.820;2023-07-31T07:07:27;5.35;;;2.25;;
67721;SDS011;58309;45.292;11.820;2023-07-31T07:09:53;4.13;;;2.42;;
67721;SDS011;58309;45.292;11.820;2023-07-31T07:12:18;2.42;;;2.22;;
67721;SDS011;58309;45.292;11.820;2023-07-31T07:14:43;2.65;;;2.45;;
67721;SDS011;58309;45.292;11.820;2023-07-31T07:17:10;2.50;;;2.30;;
67721;SDS011;58309;45.292;11.820;2023-07-31T07:19:36;2.20;;;2.00;;
67721;SDS011;58309;45.292;11.820;2023-07-31T07:22:01;2.25;;;2.15;;
67721;SDS011;58309;45.292;11.820;2023-07-31T07:24:27;4.63;;;2.20;;
67721;SDS011;58309;45.292;11.820;2023-07-31T07:26:52;2.47;;;2.28;;
67721;SDS011;58309;45.292;11.820;2023-07-31T07:29:17;3.58;;;2.50;;
67721;SDS011;58309;45.292;11.820;2023-07-31T07:31:43;12.05;;;2.53;;
67721;SDS011;58309;45.292;11.820;2023-07-31T07:34:08;3.60;;;2.33;;
67721;SDS011;58309;45.292;11.820;2023-07-31T07:36:34;2.42;;;2.22;;
67721;SDS011;58309;45.292;11.820;2023-07-31T07:38:59;2.25;;;2.15;;
67721;SDS011;58309;45.292;11.820;2023-07-31T07:41:25;3.20;;;2.42;;
67721;SDS011;58309;45.292;11.820;2023-07-31T07:43:50;2.53;;;2.20;;
67721;SDS011;58309;45.292;11.820;2023-07-31T07:46:16;2.38;;;1.75;;
67721;SDS011;58309;45.292;11.820;2023-07-31T07:48:41;2.20;;;1.97;;
67721;SDS011;58309;45.292;11.820;2023-07-31T07:51:07;2.17;;;2.07;;
67721;SDS011;58309;45.292;11.820;2023-07-31T07:53:32;2.83;;;2.10;;
67721;SDS011;58309;45.292;11.820;2023-07-31T07:55:57;2.20;;;1.90;;
67721;SDS011;58309;45.292;11.820;2023-07-31T07:58:22;2.13;;;1.73;;
67721;SDS011;58309;45.292;11.820;2023-07-31T08:00:49;2.25;;;2.10;;
67721;SDS011;58309;45.292;11.820;2023-07-31T08:03:15;2.83;;;2.10;;
67721;SDS011;58309;45.292;11.820;2023-07-31T08:05:42;3.35;;;2.00;;
67721;SDS011;58309;45.292;11.820;2023-07-31T08:08:07;5.60;;;2.65;;
67721;SDS011;58309;45.292;11.820;2023-07-31T08:10:32;2.53;;;2.20;;
67721;SDS011;58309;45.292;11.820;2023-07-31T08:12:58;5.00;;;2.15;;
67721;SDS011;58309;45.292;11.820;2023-07-31T08:15:23;3.95;;;2.25;;
67721;SDS011;58309;45.292;11.820;2023-07-31T08:17:49;4.38;;;2.40;;
67721;SDS011;58309;45.292;11.820;2023-07-31T08:20:14;3.55;;;2.15;;
67721;SDS011;58309;45.292;11.820;2023-07-31T08:22:39;2.00;;;1.90;;
67721;SDS011;58309;45.292;11.820;2023-07-31T08:25:05;4.03;;;2.10;;
67721;SDS011;58309;45.292;11.820;2023-07-31T08:27:31;3.33;;;2.00;;
67721;SDS011;58309;45.292;11.820;2023-07-31T08:29:57;4.25;;;2.10;;
67721;SDS011;58309;45.292;11.820;2023-07-31T08:32:22;2.03;;;1.83;;
67721;SDS011;58309;45.292;11.820;2023-07-31T08:34:48;2.63;;;2.10;;
67721;SDS011;58309;45.292;11.820;2023-07-31T08:37:14;3.28;;;1.98;;
67721;SDS011;58309;45.292;11.820;2023-07-31T08:39:39;1.80;;;1.70;;
67721;SDS011;58309;45.292;11.820;2023-07-31T08:42:07;2.85;;;2.05;;
67721;SDS011;58309;45.292;11.820;2023-07-31T08:44:32;2.90;;;1.98;;
67721;SDS011;58309;45.292;11.820;2023-07-31T08:46:59;2.25;;;2.00;;
67721;SDS011;58309;45.292;11.820;2023-07-31T08:49:25;3.33;;;2.13;;
67721;SDS011;58309;45.292;11.820;2023-07-31T08:51:51;3.25;;;2.10;;
67721;SDS011;58309;45.292;11.820;2023-07-31T08:54:17;4.45;;;2.40;;
67721;SDS011;58309;45.292;11.820;2023-07-31T08:56:42;2.67;;;2.22;;
67721;SDS011;58309;45.292;11.820;2023-07-31T08:59:08;2.22;;;1.80;;
67721;SDS011;58309;45.292;11.820;2023-07-31T09:01:36;2.65;;;2.05;;
67721;SDS011;58309;45.292;11.820;2023-07-31T09:04:02;2.78;;;2.17;;
67721;SDS011;58309;45.292;11.820;2023-07-31T09:06:29;2.40;;;1.88;;
67721;SDS011;58309;45.292;11.820;2023-07-31T09:08:55;2.90;;;2.20;;
67721;SDS011;58309;45.292;11.820;2023-07-31T09:11:21;3.13;;;2.00;;
67721;SDS011;58309;45.292;11.820;2023-07-31T09:13:46;3.50;;;2.10;;
67721;SDS011;58309;45.292;11.820;2023-07-31T09:16:12;4.55;;;1.90;;
67721;SDS011;58309;45.292;11.820;2023-07-31T09:18:53;2.20;;;2.00;;
67721;SDS011;58309;45.292;11.820;2023-07-31T09:21:20;2.20;;;2.00;;
67721;SDS011;58309;45.292;11.820;2023-07-31T09:23:46;2.85;;;2.20;;
67721;SDS011;58309;45.292;11.820;2023-07-31T09:26:29;1.92;;;1.83;;
67721;SDS011;58309;45.292;11.820;2023-07-31T09:28:55;1.98;;;1.88;;
67721;SDS011;58309;45.292;11.820;2023-07-31T09:31:33;4.88;;;1.95;;
67721;SDS011;58309;45.292;11.820;2023-07-31T09:34:03;2.10;;;2.00;;
67721;SDS011;58309;45.292;11.820;2023-07-31T09:36:29;4.80;;;2.10;;
67721;SDS011;58309;45.292;11.820;2023-07-31T09:38:55;2.72;;;2.10;;
67721;SDS011;58309;45.292;11.820;2023-07-31T09:41:20;5.43;;;2.10;;
67721;SDS011;58309;45.292;11.820;2023-07-31T09:43:52;2.50;;;2.13;;
67721;SDS011;58309;45.292;11.820;2023-07-31T09:46:18;2.58;;;2.13;;
67721;SDS011;58309;45.292;11.820;2023-07-31T09:48:45;2.28;;;2.08;;
67721;SDS011;58309;45.292;11.820;2023-07-31T09:51:10;4.07;;;2.10;;
67721;SDS011;58309;45.292;11.820;2023-07-31T09:53:35;2.60;;;2.07;;
67721;SDS011;58309;45.292;11.820;2023-07-31T09:56:01;2.95;;;2.50;;
67721;SDS011;58309;45.292;11.820;2023-07-31T09:58:27;3.75;;;2.40;;
67721;SDS011;58309;45.292;11.820;2023-07-31T10:00:53;2.25;;;2.05;;
67721;SDS011;58309;45.292;11.820;2023-07-31T10:03:19;2.55;;;2.10;;
67721;SDS011;58309;45.292;11.820;2023-07-31T10:05:45;2.42;;;2.22;;
67721;SDS011;58309;45.292;11.820;2023-07-31T10:08:14;1.83;;;1.73;;
67721;SDS011;58309;45.292;11.820;2023-07-31T10:10:43;2.33;;;1.80;;
67721;SDS011;58309;45.292;11.820;2023-07-31T10:13:08;3.72;;;2.00;;
67721;SDS011;58309;45.292;11.820;2023-07-31T10:15:34;1.83;;;1.70;;
67721;SDS011;58309;45.292;11.820;2023-07-31T10:18:00;1.83;;;1.70;;
67721;SDS011;58309;45.292;11.820;2023-07-31T10:20:26;3.25;;;1.80;;
67721;SDS011;58309;45.292;11.820;2023-07-31T10:22:54;3.40;;;2.00;;
67721;SDS011;58309;45.292;11.820;2023-07-31T10:25:19;3.50;;;1.80;;
67721;SDS011;58309;45.292;11.820;2023-07-31T10:27:45;1.80;;;1.60;;
67721;SDS011;58309;45.292;11.820;2023-07-31T10:30:12;1.80;;;1.70;;
67721;SDS011;58309;45.292;11.820;2023-07-31T10:32:40;1.75;;;1.65;;
67721;SDS011;58309;45.292;11.820;2023-07-31T10:35:06;1.77;;;1.67;;
67721;SDS011;58309;45.292;11.820;2023-07-31T10:37:39;3.63;;;1.60;;
67721;SDS011;58309;45.292;11.820;2023-07-31T10:40:11;4.30;;;1.60;;
67721;SDS011;58309;45.292;11.820;2023-07-31T10:45:40;2.50;;;1.70;;
67721;SDS011;58309;45.292;11.820;2023-07-31T10:48:07;1.70;;;1.60;;
67721;SDS011;58309;45.292;11.820;2023-07-31T10:50:37;1.83;;;1.73;;
67721;SDS011;58309;45.292;11.820;2023-07-31T10:53:03;1.70;;;1.60;;
67721;SDS011;58309;45.292;11.820;2023-07-31T10:58:11;1.95;;;1.75;;
67721;SDS011;58309;45.292;11.820;2023-07-31T11:00:40;2.42;;;1.80;;
67721;SDS011;58309;45.292;11.820;2023-07-31T11:03:10;3.70;;;1.67;;
67721;SDS011;58309;45.292;11.820;2023-07-31T11:05:49;1.80;;;1.70;;
67721;SDS011;58309;45.292;11.820;2023-07-31T11:08:19;1.90;;;1.70;;
67721;SDS011;58309;45.292;11.820;2023-07-31T11:10:46;2.03;;;1.40;;
67721;SDS011;58309;45.292;11.820;2023-07-31T11:13:11;2.92;;;1.60;;
67721;SDS011;58309;45.292;11.820;2023-07-31T11:15:37;1.73;;;1.63;;
67721;SDS011;58309;45.292;11.820;2023-07-31T11:18:03;2.55;;;1.50;;
67721;SDS011;58309;45.292;11.820;2023-07-31T11:20:30;1.52;;;1.42;;
67721;SDS011;58309;45.292;11.820;2023-07-31T11:22:58;3.47;;;1.88;;
67721;SDS011;58309;45.292;11.820;2023-07-31T11:25:23;1.67;;;1.58;;
67721;SDS011;58309;45.292;11.820;2023-07-31T11:27:48;2.47;;;1.73;;
67721;SDS011;58309;45.292;11.820;2023-07-31T11:30:18;1.73;;;1.60;;
67721;SDS011;58309;45.292;11.820;2023-07-31T11:32:44;2.28;;;1.50;;
67721;SDS011;58309;45.292;11.820;2023-07-31T11:35:12;1.60;;;1.50;;
67721;SDS011;58309;45.292;11.820;2023-07-31T11:37:41;1.65;;;1.55;;
67721;SDS011;58309;45.292;11.820;2023-07-31T11:40:06;1.52;;;1.42;;
67721;SDS011;58309;45.292;11.820;2023-07-31T11:42:32;3.42;;;1.70;;
67721;SDS011;58309;45.292;11.820;2023-07-31T11:44:57;1.63;;;1.50;;
67721;SDS011;58309;45.292;11.820;2023-07-31T11:47:22;1.60;;;1.50;;
67721;SDS011;58309;45.292;11.820;2023-07-31T11:49:50;1.70;;;1.60;;
67721;SDS011;58309;45.292;11.820;2023-07-31T11:52:16;1.83;;;1.50;;
67721;SDS011;58309;45.292;11.820;2023-07-31T11:54:44;2.67;;;1.73;;
67721;SDS011;58309;45.292;11.820;2023-07-31T11:57:10;2.92;;;1.63;;
67721;SDS011;58309;45.292;11.820;2023-07-31T11:59:37;1.30;;;1.30;;
67721;SDS011;58309;45.292;11.820;2023-07-31T12:02:03;2.20;;;1.50;;
67721;SDS011;58309;45.292;11.820;2023-07-31T12:04:29;2.97;;;1.50;;
67721;SDS011;58309;45.292;11.820;2023-07-31T12:06:54;2.95;;;1.60;;
67721;SDS011;58309;45.292;11.820;2023-07-31T12:09:21;1.77;;;1.25;;
67721;SDS011;58309;45.292;11.820;2023-07-31T12:11:47;2.15;;;1.30;;
67721;SDS011;58309;45.292;11.820;2023-07-31T12:14:25;1.38;;;1.30;;
67721;SDS011;58309;45.292;11.820;2023-07-31T12:19:18;1.50;;;1.40;;
67721;SDS011;58309;45.292;11.820;2023-07-31T12:21:43;1.50;;;1.40;;
67721;SDS011;58309;45.292;11.820;2023-07-31T12:24:09;2.55;;;1.40;;
67721;SDS011;58309;45.292;11.820;2023-07-31T12:26:34;2.87;;;1.90;;
67721;SDS011;58309;45.292;11.820;2023-07-31T12:28:59;1.88;;;1.45;;
67721;SDS011;58309;45.292;11.820;2023-07-31T12:31:25;2.20;;;1.50;;
67721;SDS011;58309;45.292;11.820;2023-07-31T12:33:52;2.03;;;1.60;;
67721;SDS011;58309;45.292;11.820;2023-07-31T12:36:20;2.05;;;1.60;;
67721;SDS011;58309;45.292;11.820;2023-07-31T12:38:45;1.55;;;1.40;;
67721;SDS011;58309;45.292;11.820;2023-07-31T12:41:11;1.80;;;1.70;;
67721;SDS011;58309;45.292;11.820;2023-07-31T12:43:37;1.52;;;1.42;;
67721;SDS011;58309;45.292;11.820;2023-07-31T12:46:03;1.55;;;1.45;;
67721;SDS011;58309;45.292;11.820;2023-07-31T12:48:29;2.58;;;1.60;;
67721;SDS011;58309;45.292;11.820;2023-07-31T12:50:54;1.70;;;1.60;;
67721;SDS011;58309;45.292;11.820;2023-07-31T12:53:20;1.58;;;1.48;;
67721;SDS011;58309;45.292;11.820;2023-07-31T12:55:45;1.70;;;1.60;;
67721;SDS011;58309;45.292;11.820;2023-07-31T12:58:10;3.58;;;1.60;;
67721;SDS011;58309;45.292;11.820;2023-07-31T13:00:36;1.63;;;1.53;;
67721;SDS011;58309;45.292;11.820;2023-07-31T13:03:01;1.67;;;1.58;;
67721;SDS011;58309;45.292;11.820;2023-07-31T13:05:27;2.90;;;2.40;;
67721;SDS011;58309;45.292;11.820;2023-07-31T13:07:53;1.70;;;1.60;;
67721;SDS011;58309;45.292;11.820;2023-07-31T13:10:18;1.95;;;1.67;;
67721;SDS011;58309;45.292;11.820;2023-07-31T13:12:43;3.35;;;1.55;;
67721;SDS011;58309;45.292;11.820;2023-07-31T13:15:09;1.70;;;1.60;;
67721;SDS011;58309;45.292;11.820;2023-07-31T13:17:35;1.75;;;1.60;;
67721;SDS011;58309;45.292;11.820;2023-07-31T13:20:00;1.80;;;1.40;;
67721;SDS011;58309;45.292;11.820;2023-07-31T13:22:26;2.53;;;1.60;;
67721;SDS011;58309;45.292;11.820;2023-07-31T13:24:51;1.75;;;1.65;;
67721;SDS011;58309;45.292;11.820;2023-07-31T13:27:16;2.53;;;1.52;;
67721;SDS011;58309;45.292;11.820;2023-07-31T13:29:44;1.63;;;1.52;;
67721;SDS011;58309;45.292;11.820;2023-07-31T13:32:09;1.80;;;1.70;;
67721;SDS011;58309;45.292;11.820;2023-07-31T13:34:34;1.80;;;1.70;;
67721;SDS011;58309;45.292;11.820;2023-07-31T13:37:00;2.33;;;1.67;;
67721;SDS011;58309;45.292;11.820;2023-07-31T13:39:25;1.60;;;1.50;;
67721;SDS011;58309;45.292;11.820;2023-07-31T13:41:50;1.70;;;1.60;;
67721;SDS011;58309;45.292;11.820;2023-07-31T13:44:16;1.60;;;1.40;;
67721;SDS011;58309;45.292;11.820;2023-07-31T13:46:41;1.52;;;1.42;;
67721;SDS011;58309;45.292;11.820;2023-07-31T13:49:06;1.92;;;1.70;;
67721;SDS011;58309;45.292;11.820;2023-07-31T13:51:32;1.73;;;1.63;;
67721;SDS011;58309;45.292;11.820;2023-07-31T13:53:57;1.77;;;1.67;;
67721;SDS011;58309;45.292;11.820;2023-07-31T13:56:22;1.63;;;1.52;;
67721;SDS011;58309;45.292;11.820;2023-07-31T13:58:48;2.22;;;1.40;;
67721;SDS011;58309;45.292;11.820;2023-07-31T14:01:13;2.13;;;1.60;;
67721;SDS011;58309;45.292;11.820;2023-07-31T14:03:38;3.20;;;1.50;;
67721;SDS011;58309;45.292;11.820;2023-07-31T14:06:04;1.60;;;1.50;;
67721;SDS011;58309;45.292;11.820;2023-07-31T14:08:29;2.95;;;1.80;;
67721;SDS011;58309;45.292;11.820;2023-07-31T14:10:55;1.80;;;1.70;;
67721;SDS011;58309;45.292;11.820;2023-07-31T14:13:20;2.70;;;1.90;;
67721;SDS011;58309;45.292;11.820;2023-07-31T14:15:46;2.05;;;1.63;;
67721;SDS011;58309;45.292;11.820;2023-07-31T14:18:11;1.80;;;1.70;;
67721;SDS011;58309;45.292;11.820;2023-07-31T14:20:36;1.90;;;1.80;;
67721;SDS011;58309;45.292;11.820;2023-07-31T14:23:03;2.50;;;1.70;;
67721;SDS011;58309;45.292;11.820;2023-07-31T14:25:29;2.08;;;1.70;;
67721;SDS011;58309;45.292;11.820;2023-07-31T14:27:54;1.98;;;1.88;;
67721;SDS011;58309;45.292;11.820;2023-07-31T14:30:19;2.13;;;1.52;;
67721;SDS011;58309;45.292;11.820;2023-07-31T14:32:45;1.60;;;1.50;;
67721;SDS011;58309;45.292;11.820;2023-07-31T14:35:10;1.70;;;1.50;;
67721;SDS011;58309;45.292;11.820;2023-07-31T14:37:36;2.67;;;1.63;;
67721;SDS011;58309;45.292;11.820;2023-07-31T14:40:02;1.95;;;1.60;;
67721;SDS011;58309;45.292;11.820;2023-07-31T14:42:27;2.80;;;1.70;;
67721;SDS011;58309;45.292;11.820;2023-07-31T14:44:53;1.70;;;1.60;;
67721;SDS011;58309;45.292;11.820;2023-07-31T14:47:18;2.00;;;1.60;;
67721;SDS011;58309;45.292;11.820;2023-07-31T14:49:43;2.80;;;1.70;;
67721;SDS011;58309;45.292;11.820;2023-07-31T14:52:08;2.07;;;1.60;;
67721;SDS011;58309;45.292;11.820;2023-07-31T14:54:34;1.80;;;1.70;;
67721;SDS011;58309;45.292;11.820;2023-07-31T14:57:01;1.70;;;1.60;;
67721;SDS011;58309;45.292;11.820;2023-07-31T14:59:26;1.80;;;1.70;;
67721;SDS011;58309;45.292;11.820;2023-07-31T15:01:51;2.13;;;1.60;;
67721;SDS011;58309;45.292;11.820;2023-07-31T15:04:17;1.93;;;1.60;;
67721;SDS011;58309;45.292;11.820;2023-07-31T15:06:42;2.47;;;1.80;;
67721;SDS011;58309;45.292;11.820;2023-07-31T15:09:07;1.70;;;1.60;;
67721;SDS011;58309;45.292;11.820;2023-07-31T15:11:33;1.63;;;1.53;;
67721;SDS011;58309;45.292;11.820;2023-07-31T15:13:58;3.55;;;1.58;;
67721;SDS011;58309;45.292;11.820;2023-07-31T15:16:23;1.70;;;1.60;;
67721;SDS011;58309;45.292;11.820;2023-07-31T15:18:49;1.80;;;1.70;;
67721;SDS011;58309;45.292;11.820;2023-07-31T15:21:14;1.60;;;1.50;;
67721;SDS011;58309;45.292;11.820;2023-07-31T15:23:39;1.70;;;1.60;;
67721;SDS011;58309;45.292;11.820;2023-07-31T15:26:05;1.52;;;1.50;;